Paradise, Texas
Current Conditions -  °F | °C
As of 8:15 PM on Friday 19 Dec 2014 (Local Time) from KXBP Reporting Station
Overcast Overcast  
Wind Chill: 44°   Ceiling: 1300
Heat Index: 46°   Visibility: 10mi
Dew Point: 42°   Wind: 5mph
Humidity: 87%   Direction: 20°NNE
Pressure: 30.23"   Gusts: NA
Location:  33.15°N, 97.69°W
Report Text: KXBP 200215Z AUTO 02004KT 10SM OVC013 08/06 A3023 RMK AO2 T00770056
Loading
Personal Weather Stations






























Interactive Weather Map New forecast layout! Learn more

10-Day Weather Forecast

Advertisements
Track Severe Weather on mobile